createdAt,value
2022-11-16T00:02:13.842Z,1.85
2022-11-16T00:04:40.817Z,1.84
2022-11-16T00:07:07.737Z,1.84
2022-11-16T00:09:34.417Z,1.85
2022-11-16T00:12:04.351Z,1.83
2022-11-16T00:14:33.697Z,1.83
2022-11-16T00:17:01.425Z,1.87
2022-11-16T00:19:29.277Z,1.83
2022-11-16T00:21:56.048Z,1.82
2022-11-16T00:24:23.960Z,1.76
2022-11-16T00:26:52.957Z,1.70
2022-11-16T00:29:22.734Z,1.74
2022-11-16T00:31:50.246Z,1.76
2022-11-16T00:34:17.028Z,1.81
2022-11-16T00:36:44.440Z,1.91
2022-11-16T00:39:15.637Z,1.90
2022-11-16T00:41:42.747Z,1.83
2022-11-16T00:44:10.465Z,1.82
2022-11-16T00:46:37.215Z,1.82
2022-11-16T00:49:05.616Z,1.79
2022-11-16T00:51:33.444Z,1.81
2022-11-16T00:54:00.274Z,1.83
2022-11-16T00:56:26.862Z,1.83
2022-11-16T00:58:53.495Z,1.79
2022-11-16T01:01:20.150Z,1.74
2022-11-16T01:03:47.862Z,1.72
2022-11-16T01:06:15.667Z,1.73
2022-11-16T01:08:43.927Z,1.70
2022-11-16T01:11:32.514Z,1.70
2022-11-16T01:13:59.151Z,1.66
2022-11-16T01:16:25.784Z,1.66
2022-11-16T01:18:54.335Z,1.62
2022-11-16T01:21:22.553Z,1.63
2022-11-16T01:23:49.345Z,1.56
2022-11-16T01:26:16.118Z,1.54
2022-11-16T01:28:42.924Z,1.51
2022-11-16T01:31:11.087Z,1.52
2022-11-16T01:33:37.945Z,1.49
2022-11-16T01:36:14.688Z,1.55
2022-11-16T01:38:46.391Z,1.55
2022-11-16T01:41:20.300Z,1.52
2022-11-16T01:43:59.498Z,1.58
2022-11-16T01:46:27.085Z,1.59
2022-11-16T01:49:07.091Z,1.64
2022-11-16T01:51:34.801Z,1.59
2022-11-16T01:54:05.916Z,1.68
2022-11-16T01:56:36.007Z,1.67
2022-11-16T01:59:03.212Z,1.66
2022-11-16T02:01:29.812Z,1.56
2022-11-16T02:03:56.581Z,1.60
2022-11-16T02:06:26.157Z,1.64
2022-11-16T02:09:17.698Z,1.58
2022-11-16T02:11:50.404Z,1.58
2022-11-16T02:14:45.975Z,1.54
2022-11-16T02:17:43.331Z,1.55
2022-11-16T02:20:31.671Z,1.46
2022-11-16T02:23:23.046Z,1.42
2022-11-16T02:26:04.757Z,1.40
2022-11-16T02:28:54.541Z,1.40
2022-11-16T02:31:27.426Z,1.35
2022-11-16T02:33:57.025Z,1.28
2022-11-16T02:36:25.122Z,1.30
2022-11-16T02:38:58.291Z,1.28
2022-11-16T02:41:31.450Z,1.33
2022-11-16T02:44:05.786Z,1.30
2022-11-16T02:46:37.944Z,1.30
2022-11-16T02:49:11.169Z,1.31
2022-11-16T02:51:40.076Z,1.29
2022-11-16T02:54:21.195Z,1.30
2022-11-16T02:56:53.530Z,1.31
2022-11-16T02:59:21.255Z,1.23
2022-11-16T03:02:18.563Z,1.17
2022-11-16T03:04:52.280Z,1.23
2022-11-16T03:07:25.844Z,1.26
2022-11-16T03:09:55.704Z,1.29
2022-11-16T03:12:27.125Z,1.31
2022-11-16T03:14:57.720Z,1.32
2022-11-16T03:17:54.372Z,1.34
2022-11-16T03:20:27.992Z,1.30
2022-11-16T03:22:59.197Z,1.22
2022-11-16T03:25:31.730Z,1.26
2022-11-16T03:28:13.609Z,1.26
2022-11-16T03:30:51.464Z,1.21
2022-11-16T03:33:30.704Z,1.18
2022-11-16T03:36:01.644Z,1.23
2022-11-16T03:38:29.025Z,1.16
2022-11-16T03:41:00.354Z,1.15
2022-11-16T03:43:28.419Z,1.18
2022-11-16T03:45:55.521Z,1.22
2022-11-16T03:48:22.169Z,1.19
2022-11-16T03:50:49.564Z,1.28
2022-11-16T03:53:16.128Z,1.22
2022-11-16T03:55:48.474Z,1.14
2022-11-16T03:58:18.726Z,1.21
2022-11-16T04:00:45.782Z,1.17
2022-11-16T04:03:12.463Z,1.15
2022-11-16T04:05:57.734Z,1.15
2022-11-16T04:08:43.134Z,1.21
2022-11-16T04:11:32.048Z,1.22
2022-11-16T04:14:17.186Z,1.26
2022-11-16T04:17:02.764Z,1.25
2022-11-16T04:19:48.201Z,1.35
2022-11-16T04:22:42.622Z,1.37
2022-11-16T04:25:14.286Z,1.34
2022-11-16T04:27:59.665Z,1.29
2022-11-16T04:30:46.626Z,1.27
2022-11-16T04:33:31.821Z,1.29
2022-11-16T04:36:20.602Z,1.37
2022-11-16T04:38:47.497Z,1.43
2022-11-16T04:41:35.876Z,1.43
2022-11-16T04:44:02.453Z,1.50
2022-11-16T04:46:47.383Z,1.55
2022-11-16T04:49:14.027Z,1.54
2022-11-16T04:51:40.629Z,1.56
2022-11-16T04:54:07.187Z,1.61
2022-11-16T04:56:33.832Z,1.59
2022-11-16T04:59:00.503Z,1.58
2022-11-16T05:01:45.886Z,1.63
2022-11-16T05:04:12.526Z,1.60
2022-11-16T05:06:39.157Z,1.54
2022-11-16T05:09:05.891Z,1.48
2022-11-16T05:11:32.532Z,1.47
2022-11-16T05:13:59.276Z,1.50
2022-11-16T05:16:25.972Z,1.51
2022-11-16T05:19:11.316Z,1.57
2022-11-16T05:21:37.968Z,1.59
2022-11-16T05:24:23.499Z,1.62
2022-11-16T05:26:50.092Z,1.62
2022-11-16T05:29:16.698Z,1.64
2022-11-16T05:31:43.221Z,1.63
2022-11-16T05:34:10.248Z,1.67
2022-11-16T05:36:37.189Z,1.75
2022-11-16T05:39:04.631Z,1.80
2022-11-16T05:41:31.333Z,1.84
2022-11-16T05:43:58.102Z,1.83
2022-11-16T05:46:25.322Z,1.81
2022-11-16T05:48:51.908Z,1.82
2022-11-16T05:51:18.563Z,1.83
2022-11-16T05:53:45.234Z,1.86
2022-11-16T05:56:14.419Z,1.92
2022-11-16T05:58:41.938Z,1.96
2022-11-16T06:01:08.714Z,2.00
2022-11-16T06:03:36.462Z,2.01
2022-11-16T06:06:05.194Z,2.07
2022-11-16T06:08:32.296Z,2.12
2022-11-16T06:11:07.691Z,2.09
2022-11-16T06:13:34.500Z,2.14
2022-11-16T06:16:02.453Z,2.18
2022-11-16T06:18:29.649Z,2.24
2022-11-16T06:20:56.391Z,2.24
2022-11-16T06:23:23.318Z,2.18
2022-11-16T06:25:55.136Z,2.24
2022-11-16T06:28:22.552Z,2.27
2022-11-16T06:30:49.785Z,2.24
2022-11-16T06:33:17.239Z,2.25
2022-11-16T06:35:44.543Z,2.23
2022-11-16T06:38:13.762Z,2.22
2022-11-16T06:40:40.349Z,2.13
2022-11-16T06:43:06.997Z,2.17
2022-11-16T06:45:33.625Z,2.21
2022-11-16T06:48:00.299Z,2.16
2022-11-16T06:50:27.000Z,2.16
2022-11-16T06:52:54.131Z,2.15
2022-11-16T06:55:20.861Z,2.27
2022-11-16T06:57:48.739Z,2.42
2022-11-16T07:00:16.001Z,2.45
2022-11-16T07:02:42.547Z,2.56
2022-11-16T07:05:09.348Z,2.58
2022-11-16T07:07:36.246Z,2.50
2022-11-16T07:10:03.799Z,2.49
2022-11-16T07:12:30.490Z,2.61
2022-11-16T07:14:57.066Z,2.79
2022-11-16T07:17:23.755Z,2.84
2022-11-16T07:19:50.328Z,2.77
2022-11-16T07:22:16.944Z,2.79
2022-11-16T07:24:43.659Z,2.89
2022-11-16T07:27:10.327Z,2.95
2022-11-16T07:29:37.035Z,2.98
2022-11-16T07:32:03.739Z,3.01
2022-11-16T07:34:30.356Z,3.04
2022-11-16T07:36:57.091Z,3.05
2022-11-16T07:39:23.714Z,3.11
2022-11-16T07:41:53.140Z,3.18
2022-11-16T07:44:20.776Z,3.29
2022-11-16T07:46:48.421Z,3.36
2022-11-16T07:49:17.128Z,3.36
2022-11-16T07:51:44.390Z,3.33
2022-11-16T07:54:12.929Z,3.38
2022-11-16T07:56:39.559Z,3.36
2022-11-16T07:59:06.602Z,3.36
2022-11-16T08:01:35.775Z,3.21
2022-11-16T08:04:02.813Z,3.17
2022-11-16T08:06:31.613Z,3.11
2022-11-16T08:08:59.130Z,3.16
2022-11-16T08:11:26.562Z,3.15
2022-11-16T08:13:53.397Z,3.15
2022-11-16T08:16:22.351Z,3.13
2022-11-16T08:18:49.426Z,3.10
2022-11-16T08:21:18.814Z,3.12
2022-11-16T08:23:46.033Z,3.17
2022-11-16T08:26:18.289Z,3.13
2022-11-16T08:28:46.792Z,3.09
2022-11-16T08:31:24.829Z,3.08
2022-11-16T08:33:52.361Z,3.09
2022-11-16T08:36:19.642Z,3.05
2022-11-16T08:38:48.233Z,2.97
2022-11-16T08:41:16.005Z,2.97
2022-11-16T08:43:44.545Z,3.03
2022-11-16T08:46:11.684Z,3.15
2022-11-16T08:48:38.307Z,3.25
2022-11-16T08:51:22.247Z,3.42
2022-11-16T08:53:50.056Z,3.41
2022-11-16T08:56:18.502Z,3.45
2022-11-16T08:58:47.373Z,3.55
2022-11-16T09:01:16.994Z,3.67
2022-11-16T09:03:44.419Z,3.71
2022-11-16T09:06:12.021Z,3.67
2022-11-16T09:08:40.684Z,3.53
2022-11-16T09:11:09.487Z,3.58
2022-11-16T09:13:36.631Z,3.61
2022-11-16T09:16:04.820Z,3.59
2022-11-16T09:18:32.261Z,3.61
2022-11-16T09:20:59.553Z,3.62
2022-11-16T09:23:26.138Z,3.65
2022-11-16T09:25:54.602Z,3.65
2022-11-16T09:28:22.278Z,3.71
2022-11-16T09:30:51.276Z,3.76
2022-11-16T09:33:17.922Z,3.73
2022-11-16T09:35:44.748Z,3.74
2022-11-16T09:38:16.004Z,3.71
2022-11-16T09:40:47.514Z,3.66
2022-11-16T09:43:14.081Z,3.70
2022-11-16T09:45:56.417Z,3.73
2022-11-16T09:48:24.249Z,3.72
2022-11-16T09:50:57.635Z,3.76
2022-11-16T09:53:33.130Z,3.82
2022-11-16T09:56:04.936Z,3.88
2022-11-16T09:58:42.112Z,4.08
2022-11-16T10:01:28.600Z,4.16
2022-11-16T10:04:23.571Z,4.23
2022-11-16T10:06:58.679Z,4.30
2022-11-16T10:09:25.932Z,4.37
2022-11-16T10:12:01.744Z,4.39
2022-11-16T10:14:46.298Z,4.47
2022-11-16T10:17:51.216Z,4.35
2022-11-16T10:20:42.656Z,4.43
2022-11-16T10:23:20.132Z,4.46
2022-11-16T10:25:53.419Z,4.42
2022-11-16T10:28:41.574Z,4.43
2022-11-16T10:31:36.481Z,4.56
2022-11-16T10:34:08.274Z,4.49
2022-11-16T10:36:37.672Z,4.67
2022-11-16T10:39:15.077Z,4.72
2022-11-16T10:41:49.870Z,4.87
2022-11-16T10:44:43.989Z,4.98
2022-11-16T10:47:35.406Z,5.09
2022-11-16T10:50:26.187Z,5.14
2022-11-16T10:52:52.928Z,5.10
2022-11-16T10:55:22.109Z,5.18
2022-11-16T10:57:57.975Z,5.17
2022-11-16T11:00:52.621Z,5.22
2022-11-16T11:03:32.429Z,5.16
2022-11-16T11:05:59.798Z,5.14
2022-11-16T11:08:30.858Z,5.14
2022-11-16T11:11:25.441Z,5.22
2022-11-16T11:14:14.198Z,5.36
2022-11-16T11:16:41.586Z,5.45
2022-11-16T11:19:19.911Z,5.41
2022-11-16T11:21:47.518Z,5.37
2022-11-16T11:24:43.438Z,5.42
2022-11-16T11:27:04.665Z,5.54
2022-11-16T11:29:37.243Z,5.41
2022-11-16T11:32:13.604Z,5.36
2022-11-16T11:34:44.155Z,5.45
2022-11-16T11:37:22.330Z,5.56
2022-11-16T11:39:50.377Z,5.64
2022-11-16T11:42:16.922Z,5.56
2022-11-16T11:44:50.497Z,5.63
2022-11-16T11:47:56.768Z,5.67
2022-11-16T11:50:36.664Z,5.63
2022-11-16T11:53:11.739Z,5.70
2022-11-16T11:55:39.700Z,5.62
2022-11-16T11:58:11.184Z,5.56
2022-11-16T12:01:23.805Z,5.60
2022-11-16T12:04:26.013Z,5.77
2022-11-16T12:07:05.212Z,5.81
2022-11-16T12:09:50.596Z,5.83
2022-11-16T12:12:41.798Z,5.86
2022-11-16T12:15:29.839Z,5.93
2022-11-16T12:18:20.895Z,5.98
2022-11-16T12:20:51.919Z,6.06
2022-11-16T12:23:30.041Z,6.07
2022-11-16T12:26:05.544Z,6.03
2022-11-16T12:28:56.242Z,6.08
2022-11-16T12:31:33.242Z,6.12
2022-11-16T12:34:18.431Z,6.05
2022-11-16T12:36:54.946Z,6.02
2022-11-16T12:39:28.709Z,6.06
2022-11-16T12:42:09.420Z,6.08
2022-11-16T12:44:51.262Z,6.14
2022-11-16T12:47:35.781Z,6.24
2022-11-16T12:50:50.494Z,6.26
2022-11-16T12:53:19.820Z,6.21
2022-11-16T12:56:04.380Z,6.18
2022-11-16T12:59:05.273Z,6.18
2022-11-16T13:02:06.929Z,6.17
2022-11-16T13:04:51.972Z,6.14
2022-11-16T13:07:27.449Z,6.17
2022-11-16T13:10:02.982Z,6.28
2022-11-16T13:12:30.972Z,6.27
2022-11-16T13:15:01.956Z,6.21
2022-11-16T13:17:37.693Z,6.17
2022-11-16T13:20:22.150Z,6.20
2022-11-16T13:23:15.577Z,6.19
2022-11-16T13:25:55.319Z,6.10
2022-11-16T13:28:46.602Z,6.09
2022-11-16T13:31:30.032Z,6.08
2022-11-16T13:34:13.114Z,6.04
2022-11-16T13:36:45.147Z,6.06
2022-11-16T13:39:22.664Z,6.10
2022-11-16T13:41:59.775Z,6.07
2022-11-16T13:44:29.055Z,6.07
2022-11-16T13:47:04.652Z,6.05
2022-11-16T13:49:34.504Z,6.03
2022-11-16T13:52:54.062Z,6.00
2022-11-16T13:55:31.127Z,5.99
2022-11-16T13:58:00.378Z,6.04
2022-11-16T14:00:37.886Z,6.09
2022-11-16T14:03:10.398Z,6.16
2022-11-16T14:05:42.441Z,6.16
2022-11-16T14:08:24.206Z,6.22
2022-11-16T14:10:50.875Z,6.27
2022-11-16T14:13:40.332Z,6.33
2022-11-16T14:16:22.865Z,6.33
2022-11-16T14:19:00.964Z,6.37
2022-11-16T14:21:55.651Z,6.38
2022-11-16T14:24:40.645Z,6.34
2022-11-16T14:27:16.130Z,6.33
2022-11-16T14:30:08.080Z,6.24
2022-11-16T14:32:42.516Z,6.27
2022-11-16T14:35:42.061Z,6.31
2022-11-16T14:38:26.902Z,6.35
2022-11-16T14:40:59.348Z,6.36
2022-11-16T14:43:44.624Z,6.27
2022-11-16T14:46:23.542Z,6.32
2022-11-16T14:48:50.653Z,6.33
2022-11-16T14:51:33.025Z,6.29
2022-11-16T14:54:04.436Z,6.32
2022-11-16T14:56:31.447Z,6.30
2022-11-16T14:59:02.272Z,6.34
2022-11-16T15:01:33.182Z,6.34
2022-11-16T15:04:04.435Z,6.35
2022-11-16T15:06:42.244Z,6.34
2022-11-16T15:09:16.917Z,6.32
2022-11-16T15:12:06.707Z,6.30
2022-11-16T15:14:37.365Z,6.25
2022-11-16T15:17:07.281Z,6.24
2022-11-16T15:19:34.084Z,6.22
2022-11-16T15:22:02.652Z,6.27
2022-11-16T15:24:34.065Z,6.30
2022-11-16T15:27:06.891Z,6.27
2022-11-16T15:29:33.581Z,6.27
2022-11-16T15:32:00.259Z,6.25
2022-11-16T15:34:26.911Z,6.27
2022-11-16T15:36:55.715Z,6.27
2022-11-16T15:39:27.632Z,6.21
2022-11-16T15:42:00.428Z,6.20
2022-11-16T15:44:31.390Z,6.27
2022-11-16T15:46:58.898Z,6.26
2022-11-16T15:49:33.616Z,6.24
2022-11-16T15:52:01.069Z,6.25
2022-11-16T15:54:30.324Z,6.24
2022-11-16T15:57:08.095Z,6.23
2022-11-16T15:59:36.810Z,6.29
2022-11-16T16:02:04.379Z,6.22
2022-11-16T16:04:31.352Z,6.23
2022-11-16T16:07:00.157Z,6.27
2022-11-16T16:09:34.719Z,6.32
2022-11-16T16:12:18.872Z,6.28
2022-11-16T16:14:46.571Z,6.31
2022-11-16T16:17:25.720Z,6.35
2022-11-16T16:19:58.403Z,6.33
2022-11-16T16:22:28.142Z,6.32
2022-11-16T16:24:54.989Z,6.28
2022-11-16T16:27:24.167Z,6.29
2022-11-16T16:29:53.609Z,6.32
2022-11-16T16:32:31.552Z,6.39
2022-11-16T16:35:00.717Z,6.38
2022-11-16T16:37:30.664Z,6.36
2022-11-16T16:39:58.203Z,6.32
2022-11-16T16:42:25.162Z,6.37
2022-11-16T16:44:51.831Z,6.44
2022-11-16T16:47:22.027Z,6.41
2022-11-16T16:49:49.512Z,6.42
2022-11-16T16:52:16.673Z,6.46
2022-11-16T16:54:43.563Z,6.46
2022-11-16T16:57:14.968Z,6.42
2022-11-16T16:59:42.397Z,6.34
2022-11-16T17:02:13.103Z,6.30
2022-11-16T17:04:39.980Z,6.24
2022-11-16T17:07:06.650Z,6.26
2022-11-16T17:09:35.491Z,6.21
2022-11-16T17:12:02.222Z,6.13
2022-11-16T17:14:28.802Z,6.07
2022-11-16T17:16:55.626Z,6.16
2022-11-16T17:19:22.271Z,6.16
2022-11-16T17:21:50.769Z,6.12
2022-11-16T17:24:17.467Z,6.08
2022-11-16T17:26:48.312Z,6.05
2022-11-16T17:29:15.444Z,6.05
2022-11-16T17:31:44.171Z,6.10
2022-11-16T17:34:13.805Z,6.16
2022-11-16T17:36:41.496Z,6.24
2022-11-16T17:39:08.273Z,6.24
2022-11-16T17:41:35.009Z,6.26
2022-11-16T17:44:01.615Z,6.27
2022-11-16T17:46:29.077Z,6.27
2022-11-16T17:48:56.091Z,6.22
2022-11-16T17:51:24.947Z,6.22
2022-11-16T17:53:52.136Z,6.22
2022-11-16T17:56:21.265Z,6.21
2022-11-16T17:58:50.164Z,6.18
2022-11-16T18:01:17.136Z,6.14
2022-11-16T18:03:44.020Z,6.08
2022-11-16T18:06:16.999Z,6.10
2022-11-16T18:08:44.166Z,6.08
2022-11-16T18:11:10.964Z,6.07
2022-11-16T18:13:38.183Z,6.04
2022-11-16T18:16:11.309Z,6.06
2022-11-16T18:18:39.120Z,6.13
2022-11-16T18:21:07.362Z,6.20
2022-11-16T18:23:35.717Z,6.16
2022-11-16T18:26:08.338Z,6.09
2022-11-16T18:28:35.342Z,6.09
2022-11-16T18:31:04.038Z,6.07
2022-11-16T18:33:36.174Z,6.06
2022-11-16T18:36:05.044Z,6.00
2022-11-16T18:38:35.001Z,6.03
2022-11-16T18:41:13.858Z,5.95
2022-11-16T18:43:42.539Z,5.95
2022-11-16T18:46:09.228Z,5.92
2022-11-16T18:48:36.268Z,5.94
2022-11-16T18:51:04.824Z,5.97
2022-11-16T18:53:36.484Z,5.99
2022-11-16T18:56:03.461Z,6.00
2022-11-16T19:01:21.350Z,6.03
2022-11-16T19:03:48.327Z,6.01
2022-11-16T19:06:17.296Z,6.00
2022-11-16T19:08:47.808Z,6.05
2022-11-16T19:11:21.414Z,6.08
2022-11-16T19:13:56.294Z,6.13
2022-11-16T19:16:24.501Z,6.13
2022-11-16T19:18:51.419Z,6.08
2022-11-16T19:21:18.821Z,6.03
2022-11-16T19:23:51.144Z,6.10
2022-11-16T19:26:19.632Z,6.13
2022-11-16T19:28:47.857Z,6.12
2022-11-16T19:31:18.556Z,6.10
2022-11-16T19:33:46.026Z,6.08
2022-11-16T19:36:17.914Z,6.06
2022-11-16T19:38:46.128Z,6.11
2022-11-16T19:41:14.496Z,6.06
2022-11-16T19:43:41.862Z,6.01
2022-11-16T19:46:16.627Z,6.04
2022-11-16T19:48:44.849Z,6.01
2022-11-16T19:51:23.273Z,5.95
2022-11-16T19:53:49.941Z,5.88
2022-11-16T19:56:18.859Z,5.84
2022-11-16T19:58:46.213Z,5.89
2022-11-16T20:01:15.316Z,6.05
2022-11-16T20:03:42.352Z,6.10
2022-11-16T20:06:19.453Z,6.04
2022-11-16T20:08:58.560Z,6.00
2022-11-16T20:11:40.967Z,6.00
2022-11-16T20:14:10.450Z,6.00
2022-11-16T20:16:41.950Z,6.03
2022-11-16T20:19:10.040Z,6.06
2022-11-16T20:21:41.899Z,6.03
2022-11-16T20:24:11.901Z,5.97
2022-11-16T20:26:44.010Z,5.92
2022-11-16T20:29:12.157Z,5.89
2022-11-16T20:31:42.806Z,5.96
2022-11-16T20:34:14.010Z,6.01
2022-11-16T20:36:45.750Z,6.03
2022-11-16T20:39:20.346Z,5.98
2022-11-16T20:41:50.107Z,5.96
2022-11-16T20:44:21.007Z,5.96
2022-11-16T20:46:47.975Z,5.93
2022-11-16T20:49:15.211Z,5.93
2022-11-16T20:51:41.855Z,5.95
2022-11-16T20:54:08.627Z,5.92
2022-11-16T20:56:56.745Z,5.86
2022-11-16T20:59:23.358Z,5.87
2022-11-16T21:01:52.758Z,5.84
2022-11-16T21:04:20.725Z,5.83
2022-11-16T21:06:47.395Z,5.82
2022-11-16T21:09:22.720Z,5.84
2022-11-16T21:12:08.259Z,5.83
2022-11-16T21:14:34.859Z,5.83
2022-11-16T21:17:01.654Z,5.84
2022-11-16T21:19:28.360Z,5.85
2022-11-16T21:21:55.045Z,5.88
2022-11-16T21:24:24.730Z,5.87
2022-11-16T21:26:52.377Z,5.86
2022-11-16T21:29:22.279Z,5.88
2022-11-16T21:31:48.956Z,5.81
2022-11-16T21:34:15.576Z,5.65
2022-11-16T21:36:42.202Z,5.64
2022-11-16T21:39:08.801Z,5.73
2022-11-16T21:41:35.443Z,5.70
2022-11-16T21:44:02.067Z,5.79
2022-11-16T21:46:28.685Z,5.73
2022-11-16T21:48:56.618Z,5.76
2022-11-16T21:51:25.663Z,5.75
2022-11-16T21:53:52.632Z,5.74
2022-11-16T21:56:21.307Z,5.78
2022-11-16T21:58:49.968Z,5.75
2022-11-16T22:01:17.018Z,5.67
2022-11-16T22:03:44.789Z,5.74
2022-11-16T22:06:32.823Z,5.68
2022-11-16T22:09:00.159Z,5.61
2022-11-16T22:11:26.836Z,5.60
2022-11-16T22:13:53.470Z,5.60
2022-11-16T22:16:23.312Z,5.53
2022-11-16T22:18:50.332Z,5.51
2022-11-16T22:21:17.062Z,5.53
2022-11-16T22:23:43.632Z,5.52
2022-11-16T22:26:12.596Z,5.56
2022-11-16T22:28:39.560Z,5.52
2022-11-16T22:31:09.466Z,5.52
2022-11-16T22:33:36.423Z,5.46
2022-11-16T22:36:03.859Z,5.37
2022-11-16T22:38:30.525Z,5.38
2022-11-16T22:40:57.848Z,5.40
2022-11-16T22:43:27.261Z,5.46
2022-11-16T22:45:58.729Z,5.47
2022-11-16T22:48:39.147Z,5.47
2022-11-16T22:51:29.536Z,5.44
2022-11-16T22:54:04.362Z,5.47
2022-11-16T22:56:32.629Z,5.46
2022-11-16T22:59:01.178Z,5.47
2022-11-16T23:01:28.693Z,5.47
2022-11-16T23:03:56.022Z,5.47
2022-11-16T23:06:23.074Z,5.47
2022-11-16T23:08:49.803Z,5.48
2022-11-16T23:11:37.725Z,5.50
2022-11-16T23:14:24.882Z,5.50
2022-11-16T23:16:52.166Z,5.46
2022-11-16T23:19:38.854Z,5.44
2022-11-16T23:22:24.600Z,5.45
2022-11-16T23:25:10.274Z,5.42
2022-11-16T23:28:20.157Z,5.45
2022-11-16T23:30:46.761Z,5.48
2022-11-16T23:33:13.562Z,5.47
2022-11-16T23:35:40.152Z,5.45
2022-11-16T23:38:08.278Z,5.44
2022-11-16T23:40:39.648Z,5.44
2022-11-16T23:43:27.485Z,5.47
2022-11-16T23:45:54.075Z,5.47
2022-11-16T23:48:20.779Z,5.51
2022-11-16T23:50:47.503Z,5.47
2022-11-16T23:53:14.595Z,5.51
2022-11-16T23:55:41.267Z,5.47
2022-11-16T23:58:13.731Z,5.49
